Time;durP1;ratioP1;P1;durP2;ratioP2;P2;SDS_P1;SDS_P2;PMS_P1;PMS_P2;Temp;Humidity;BMP_temperature;BMP_pressure;BME280_temperature;BME280_humidity;BME280_pressure;Samples;Min_cycle;Max_cycle;Signal;HPM_P1;HPM_P2
2022/04/20 00:03:01;;;;;;;;;;;22.50;38.90;;;;;;6299957;27;19995;-49
2022/04/20 00:06:02;;;;;;;;;;;22.40;38.80;;;;;;6286368;28;19931;-52
2022/04/20 00:09:04;;;;;;;;;;;22.30;38.70;;;;;;6306711;27;19930;-51
2022/04/20 00:12:07;;;;;;;;;;;22.40;38.80;;;;;;6302268;27;19923;-50
2022/04/20 00:15:08;;;;;;;;;;;22.30;38.70;;;;;;6308937;27;19927;-50
2022/04/20 00:18:09;;;;;;;;;;;22.30;38.70;;;;;;6307716;27;19931;-49
2022/04/20 00:21:11;;;;;;;;;;;22.40;38.70;;;;;;6305657;27;19939;-49
2022/04/20 00:24:12;;;;;;;;;;;22.40;38.70;;;;;;6304999;28;19939;-54
2022/04/20 00:27:14;;;;;;;;;;;22.30;38.60;;;;;;6305114;28;20081;-47
2022/04/20 00:30:15;;;;;;;;;;;22.50;38.70;;;;;;6303802;27;20053;-52
2022/04/20 00:33:17;;;;;;;;;;;22.40;38.70;;;;;;6304837;27;19931;-50
2022/04/20 00:36:18;;;;;;;;;;;22.50;38.80;;;;;;6304853;27;19927;-51
2022/04/20 00:39:20;;;;;;;;;;;22.20;38.60;;;;;;6300107;27;20042;-52
2022/04/20 00:42:23;;;;;;;;;;;22.40;38.70;;;;;;6303770;28;20893;-51
2022/04/20 00:45:25;;;;;;;;;;;22.40;38.70;;;;;;6303491;28;19982;-49
2022/04/20 00:48:27;;;;;;;;;;;22.40;38.80;;;;;;6305469;28;20936;-47
2022/04/20 00:51:29;;;;;;;;;;;22.30;38.80;;;;;;6290140;27;19923;-49
2022/04/20 00:54:30;;;;;;;;;;;22.20;38.70;;;;;;6305060;28;19983;-51
2022/04/20 00:57:34;;;;;;;;;;;22.20;38.70;;;;;;6305923;27;19939;-52
2022/04/20 01:00:36;;;;;;;;;;;22.30;38.80;;;;;;6304798;27;19966;-50
2022/04/20 01:03:38;;;;;;;;;;;22.30;38.80;;;;;;6302977;27;19974;-53
2022/04/20 01:06:59;;;;;;;;;;;22.20;38.80;;;;;;6303326;28;20823;-50
2022/04/20 01:10:21;;;;;;;;;;;22.30;38.90;;;;;;6304146;27;19939;-52
2022/04/20 01:13:42;;;;;;;;;;;22.30;38.90;;;;;;6304129;28;20765;-47
2022/04/20 01:17:02;;;;;;;;;;;22.30;38.90;;;;;;6304959;28;19959;-59
2022/04/20 01:20:23;;;;;;;;;;;22.30;38.90;;;;;;6299318;28;20016;-49
2022/04/20 01:23:45;;;;;;;;;;;22.30;39.00;;;;;;6300339;28;19931;-49
2022/04/20 01:27:07;;;;;;;;;;;22.30;38.90;;;;;;6299360;27;20350;-47
2022/04/20 01:30:28;;;;;;;;;;;22.20;38.90;;;;;;6298559;28;20397;-48
2022/04/20 01:33:41;;;;;;;;;;;22.40;39.00;;;;;;6295972;27;19927;-52
2022/04/20 01:36:42;;;;;;;;;;;22.20;38.90;;;;;;6301819;27;20727;-49
2022/04/20 01:39:44;;;;;;;;;;;22.20;38.90;;;;;;6298346;27;19941;-50
2022/04/20 01:42:46;;;;;;;;;;;22.20;38.90;;;;;;6296713;28;20773;-50
2022/04/20 01:45:48;;;;;;;;;;;22.20;38.90;;;;;;6295658;27;19935;-49
2022/04/20 01:49:02;;;;;;;;;;;22.20;38.90;;;;;;6298986;28;19927;-52
2022/04/20 01:52:22;;;;;;;;;;;22.20;38.90;;;;;;6303155;27;20036;-48
2022/04/20 01:55:37;;;;;;;;;;;22.00;38.80;;;;;;6307050;27;19942;-47
2022/04/20 01:58:53;;;;;;;;;;;22.20;39.00;;;;;;6307240;28;19923;-50
2022/04/20 02:05:18;;;;;;;;;;;22.10;38.90;;;;;;6305473;27;19931;-53
2022/04/20 02:08:24;;;;;;;;;;;22.20;39.00;;;;;;6304051;28;19968;-49
2022/04/20 02:11:42;;;;;;;;;;;22.20;39.00;;;;;;6302579;28;19935;-49
2022/04/20 02:14:52;;;;;;;;;;;22.20;39.00;;;;;;6302315;28;19985;-51
2022/04/20 02:18:13;;;;;;;;;;;22.20;39.00;;;;;;6301513;27;20042;-50
2022/04/20 02:21:25;;;;;;;;;;;22.10;39.00;;;;;;6301807;27;19935;-48
2022/04/20 02:24:26;;;;;;;;;;;22.10;39.00;;;;;;6302619;28;19939;-49
2022/04/20 02:27:28;;;;;;;;;;;22.20;39.00;;;;;;6296592;27;20204;-49
2022/04/20 02:30:30;;;;;;;;;;;22.10;39.00;;;;;;6296795;27;19924;-50
2022/04/20 02:33:31;;;;;;;;;;;22.00;38.90;;;;;;6299566;27;20941;-51
2022/04/20 02:36:33;;;;;;;;;;;22.10;39.00;;;;;;6302403;28;19937;-51
2022/04/20 02:39:36;;;;;;;;;;;22.10;39.00;;;;;;6300525;28;19931;-49
2022/04/20 02:42:39;;;;;;;;;;;22.00;38.90;;;;;;6304639;27;20809;-50
2022/04/20 02:45:41;;;;;;;;;;;21.70;38.80;;;;;;6306462;28;19931;-49
2022/04/20 02:48:42;;;;;;;;;;;22.10;39.00;;;;;;6308423;27;19932;-46
2022/04/20 02:51:43;;;;;;;;;;;22.10;39.00;;;;;;6305245;27;19924;-50
2022/04/20 02:54:46;;;;;;;;;;;22.10;39.10;;;;;;6306463;27;19931;-49
2022/04/20 02:57:50;;;;;;;;;;;22.10;39.10;;;;;;6309822;28;20931;-51
2022/04/20 03:00:52;;;;;;;;;;;22.10;39.10;;;;;;6310110;27;19934;-50
2022/04/20 03:04:02;;;;;;;;;;;22.10;39.10;;;;;;6307843;27;20051;-48
2022/04/20 03:07:07;;;;;;;;;;;22.00;39.00;;;;;;6309851;27;20078;-50
2022/04/20 03:10:18;;;;;;;;;;;22.00;39.00;;;;;;6310749;27;19977;-49
2022/04/20 03:13:21;;;;;;;;;;;22.00;39.00;;;;;;6308863;28;19979;-47
2022/04/20 03:16:24;;;;;;;;;;;21.90;39.00;;;;;;6308485;28;19944;-53
2022/04/20 03:19:26;;;;;;;;;;;22.00;39.10;;;;;;6311183;27;19935;-53
2022/04/20 03:22:28;;;;;;;;;;;21.90;39.10;;;;;;6305425;28;20042;-52
2022/04/20 03:25:29;;;;;;;;;;;22.00;39.10;;;;;;6308009;27;19930;-53
2022/04/20 03:28:51;;;;;;;;;;;21.90;39.00;;;;;;6309135;27;20165;-50
2022/04/20 03:31:53;;;;;;;;;;;21.80;38.90;;;;;;6309617;27;20038;-48
2022/04/20 03:34:54;;;;;;;;;;;22.00;39.00;;;;;;6309005;28;19932;-46
2022/04/20 03:37:56;;;;;;;;;;;22.00;39.00;;;;;;6306767;27;19952;-47
2022/04/20 03:40:58;;;;;;;;;;;21.90;38.90;;;;;;6307673;27;19924;-49
2022/04/20 03:44:00;;;;;;;;;;;22.10;39.00;;;;;;6309186;28;20137;-51
2022/04/20 03:47:02;;;;;;;;;;;22.00;38.90;;;;;;6307491;27;19934;-48
2022/04/20 03:50:04;;;;;;;;;;;22.10;39.00;;;;;;6308939;27;19932;-50
2022/04/20 03:53:06;;;;;;;;;;;22.10;39.00;;;;;;6309598;27;20783;-46
2022/04/20 03:56:07;;;;;;;;;;;21.90;39.00;;;;;;6306666;28;20788;-48
2022/04/20 03:59:10;;;;;;;;;;;22.10;39.10;;;;;;6311291;27;19931;-58
2022/04/20 04:02:12;;;;;;;;;;;22.00;39.10;;;;;;6298725;27;21500;-50
2022/04/20 04:05:19;;;;;;;;;;;21.90;39.10;;;;;;6305664;27;20004;-45
2022/04/20 04:08:25;;;;;;;;;;;22.00;39.10;;;;;;6307179;27;19932;-50
2022/04/20 04:11:27;;;;;;;;;;;21.90;39.10;;;;;;6303666;28;21246;-51
2022/04/20 04:14:29;;;;;;;;;;;22.00;39.10;;;;;;6302727;27;21241;-52
2022/04/20 04:17:31;;;;;;;;;;;21.90;39.10;;;;;;6301929;27;19927;-47
2022/04/20 04:20:34;;;;;;;;;;;22.00;39.20;;;;;;6304828;28;19928;-53
2022/04/20 04:23:36;;;;;;;;;;;21.80;39.10;;;;;;6303725;27;19997;-50
2022/04/20 04:26:49;;;;;;;;;;;21.90;39.20;;;;;;6302934;27;19931;-50
2022/04/20 04:29:53;;;;;;;;;;;21.80;39.10;;;;;;6305692;27;19934;-49
2022/04/20 04:32:55;;;;;;;;;;;22.00;39.30;;;;;;6302289;28;19944;-47
2022/04/20 04:35:56;;;;;;;;;;;21.80;39.20;;;;;;6303629;27;19990;-50
2022/04/20 04:38:59;;;;;;;;;;;21.80;39.20;;;;;;6307584;27;19923;-46
2022/04/20 04:42:04;;;;;;;;;;;21.90;39.30;;;;;;6300626;27;20758;-48
2022/04/20 04:51:47;;;;;;;;;;;21.90;39.30;;;;;;6301733;27;19939;-49
2022/04/20 04:54:51;;;;;;;;;;;21.80;39.20;;;;;;6302981;28;19924;-50
2022/04/20 04:57:53;;;;;;;;;;;21.90;39.30;;;;;;6298399;28;19923;-48
2022/04/20 05:00:57;;;;;;;;;;;21.70;39.20;;;;;;6298171;27;19939;-47
2022/04/20 05:04:02;;;;;;;;;;;21.90;39.30;;;;;;6298258;28;19930;-48
2022/04/20 05:07:03;;;;;;;;;;;21.80;39.30;;;;;;6301319;27;19931;-49
2022/04/20 05:10:15;;;;;;;;;;;21.80;39.40;;;;;;6298567;27;20087;-48
2022/04/20 05:13:16;;;;;;;;;;;21.90;39.40;;;;;;6300090;27;20042;-45
2022/04/20 05:16:19;;;;;;;;;;;21.80;39.30;;;;;;6298882;27;19935;-49
2022/04/20 05:19:29;;;;;;;;;;;21.70;39.30;;;;;;6301364;27;21145;-55
2022/04/20 05:22:36;;;;;;;;;;;21.70;39.30;;;;;;6286596;28;20206;-45
2022/04/20 05:25:37;;;;;;;;;;;21.90;39.40;;;;;;6299060;27;19997;-46
2022/04/20 05:28:42;;;;;;;;;;;21.80;39.40;;;;;;6301351;28;19992;-48
2022/04/20 05:31:44;;;;;;;;;;;21.80;39.40;;;;;;6300259;27;20012;-48
2022/04/20 05:34:50;;;;;;;;;;;21.80;39.40;;;;;;6300528;28;19924;-49
2022/04/20 05:44:37;;;;;;;;;;;21.80;39.40;;;;;;6293606;28;19992;-45
2022/04/20 05:47:39;;;;;;;;;;;21.80;39.40;;;;;;6292218;27;20058;-53
2022/04/20 05:50:43;;;;;;;;;;;21.90;39.40;;;;;;6292031;28;20112;-46
2022/04/20 05:53:45;;;;;;;;;;;21.90;39.30;;;;;;6288347;27;19931;-49
2022/04/20 05:56:48;;;;;;;;;;;21.80;39.20;;;;;;6286322;28;19931;-49
2022/04/20 05:59:50;;;;;;;;;;;22.00;39.30;;;;;;6287677;27;20946;-49
2022/04/20 06:02:54;;;;;;;;;;;21.90;39.20;;;;;;6284471;28;21088;-47
2022/04/20 06:05:56;;;;;;;;;;;21.80;39.20;;;;;;6278727;27;19986;-44
2022/04/20 06:09:03;;;;;;;;;;;21.90;39.20;;;;;;6271668;27;19932;-46
2022/04/20 06:12:22;;;;;;;;;;;21.90;39.10;;;;;;6271406;28;20939;-49
2022/04/20 06:15:32;;;;;;;;;;;22.00;39.20;;;;;;6263257;27;19931;-48
2022/04/20 06:18:56;;;;;;;;;;;22.00;39.10;;;;;;6280389;27;20198;-51
2022/04/20 06:22:07;;;;;;;;;;;22.00;39.10;;;;;;6272384;27;20046;-45
2022/04/20 06:25:27;;;;;;;;;;;22.00;39.00;;;;;;6260513;28;20695;-46
2022/04/20 06:28:47;;;;;;;;;;;21.80;38.80;;;;;;6273765;27;19935;-46
2022/04/20 06:32:02;;;;;;;;;;;22.10;39.00;;;;;;6254033;27;20030;-46
2022/04/20 06:35:13;;;;;;;;;;;22.00;38.90;;;;;;6250947;27;19931;-45
2022/04/20 06:38:32;;;;;;;;;;;22.20;38.90;;;;;;6234671;27;21257;-47
2022/04/20 06:41:52;;;;;;;;;;;22.10;38.80;;;;;;6245840;27;19943;-46
2022/04/20 06:45:14;;;;;;;;;;;22.20;39.10;;;;;;6254974;27;19938;-47
2022/04/20 06:48:23;;;;;;;;;;;21.80;39.50;;;;;;6220683;27;19931;-47
2022/04/20 07:01:47;;;;;;;;;;;21.40;40.00;;;;;;6131494;27;22648;-48
2022/04/20 07:05:03;;;;;;;;;;;21.60;39.80;;;;;;6123708;27;20054;-48
2022/04/20 07:08:13;;;;;;;;;;;21.80;39.70;;;;;;6115957;27;21530;-47
2022/04/20 07:11:18;;;;;;;;;;;21.80;39.40;;;;;;6134759;27;19939;-47
2022/04/20 07:14:23;;;;;;;;;;;21.90;39.30;;;;;;6165007;27;19997;-49
2022/04/20 07:17:24;;;;;;;;;;;22.00;39.20;;;;;;6155620;27;20492;-48
2022/04/20 07:20:42;;;;;;;;;;;22.10;39.10;;;;;;6173254;27;20020;-53
2022/04/20 07:23:53;;;;;;;;;;;22.20;39.00;;;;;;6143145;27;28705;-49
2022/04/20 07:27:15;;;;;;;;;;;22.10;38.90;;;;;;6163543;27;19935;-49
2022/04/20 07:30:36;;;;;;;;;;;22.30;39.00;;;;;;6139939;27;30403;-48
2022/04/20 07:33:58;;;;;;;;;;;22.10;38.80;;;;;;6162574;27;19953;-51
2022/04/20 07:37:12;;;;;;;;;;;22.40;38.90;;;;;;6147035;27;19997;-50
2022/04/20 07:40:32;;;;;;;;;;;22.40;38.80;;;;;;6176259;27;34744;-50
2022/04/20 07:43:54;;;;;;;;;;;22.50;38.80;;;;;;6167143;27;19932;-48
2022/04/20 07:47:04;;;;;;;;;;;22.40;38.70;;;;;;6150492;27;19931;-49
2022/04/20 07:50:25;;;;;;;;;;;22.60;39.00;;;;;;6143000;27;19931;-48
2022/04/20 07:53:37;;;;;;;;;;;22.60;38.70;;;;;;6152377;27;19932;-51
2022/04/20 07:56:53;;;;;;;;;;;22.70;38.70;;;;;;6143698;27;34909;-51
2022/04/20 08:00:13;;;;;;;;;;;22.50;38.60;;;;;;6146900;27;22289;-46
2022/04/20 08:03:16;;;;;;;;;;;22.80;38.60;;;;;;6147050;27;20156;-49
2022/04/20 08:06:18;;;;;;;;;;;22.90;38.70;;;;;;6115665;27;20187;-47
2022/04/20 08:09:20;;;;;;;;;;;22.80;38.60;;;;;;6148763;27;20159;-47
2022/04/20 08:12:24;;;;;;;;;;;22.90;38.60;;;;;;6138654;27;19932;-50
2022/04/20 08:15:27;;;;;;;;;;;22.90;39.20;;;;;;6163690;27;19935;-50
2022/04/20 08:18:31;;;;;;;;;;;22.90;38.60;;;;;;6155507;27;19938;-52
2022/04/20 08:21:52;;;;;;;;;;;23.00;38.70;;;;;;6156683;27;19932;-48
2022/04/20 08:24:54;;;;;;;;;;;23.00;38.60;;;;;;6144234;27;22359;-49
2022/04/20 08:27:56;;;;;;;;;;;23.00;38.50;;;;;;6137820;27;19931;-47
2022/04/20 08:30:58;;;;;;;;;;;23.10;38.60;;;;;;6121397;27;19932;-45
2022/04/20 08:33:59;;;;;;;;;;;23.10;38.60;;;;;;6135917;27;20895;-49
2022/04/20 08:37:01;;;;;;;;;;;23.00;39.10;;;;;;6145788;27;19932;-47
2022/04/20 08:40:02;;;;;;;;;;;23.10;38.60;;;;;;6140638;27;19967;-47
2022/04/20 08:43:05;;;;;;;;;;;23.10;38.50;;;;;;6159641;27;21146;-49
2022/04/20 08:46:08;;;;;;;;;;;23.10;38.60;;;;;;6126373;27;19939;-48
2022/04/20 08:49:09;;;;;;;;;;;23.00;38.50;;;;;;6176329;27;21062;-45
2022/04/20 08:55:23;;;;;;;;;;;23.20;39.20;;;;;;6128932;27;19932;-49
2022/04/20 08:58:25;;;;;;;;;;;23.10;38.60;;;;;;6123877;27;19949;-47
2022/04/20 09:01:27;;;;;;;;;;;23.20;38.60;;;;;;6087895;27;22970;-46
2022/04/20 09:04:28;;;;;;;;;;;23.20;38.60;;;;;;6135274;27;19975;-49
2022/04/20 09:07:31;;;;;;;;;;;23.20;38.60;;;;;;6121376;27;21213;-46
2022/04/20 09:10:32;;;;;;;;;;;23.30;38.60;;;;;;6115938;27;19932;-48
2022/04/20 09:13:36;;;;;;;;;;;23.30;38.70;;;;;;6143631;27;19968;-47
2022/04/20 09:16:41;;;;;;;;;;;23.30;38.70;;;;;;6116188;27;21461;-49
2022/04/20 09:19:44;;;;;;;;;;;23.30;38.70;;;;;;6102700;27;20023;-47
2022/04/20 09:23:02;;;;;;;;;;;23.30;38.90;;;;;;6135415;27;22943;-47
2022/04/20 09:26:07;;;;;;;;;;;23.10;38.70;;;;;;6130752;27;19936;-48
2022/04/20 09:29:10;;;;;;;;;;;23.30;38.80;;;;;;6103160;27;19931;-51
2022/04/20 09:32:13;;;;;;;;;;;23.20;38.80;;;;;;6121464;27;19932;-48
2022/04/20 09:35:16;;;;;;;;;;;23.20;39.40;;;;;;6103274;27;19992;-48
2022/04/20 09:38:20;;;;;;;;;;;23.30;38.80;;;;;;6143909;27;21982;-49
2022/04/20 09:41:32;;;;;;;;;;;23.30;38.80;;;;;;6132524;27;21765;-53
2022/04/20 09:44:35;;;;;;;;;;;23.30;38.80;;;;;;6112217;27;19931;-49
2022/04/20 09:50:53;;;;;;;;;;;23.30;38.80;;;;;;6139027;27;20007;-48
2022/04/20 09:53:54;;;;;;;;;;;23.40;38.90;;;;;;6141789;27;20089;-51
2022/04/20 09:57:11;;;;;;;;;;;23.50;38.90;;;;;;6143136;27;21810;-46
2022/04/20 10:00:14;;;;;;;;;;;23.30;38.70;;;;;;6143455;27;19931;-50
2022/04/20 10:03:24;;;;;;;;;;;23.40;38.80;;;;;;6119644;27;19931;-48
2022/04/20 10:06:26;;;;;;;;;;;23.60;38.90;;;;;;6149297;27;19932;-52
2022/04/20 10:09:27;;;;;;;;;;;23.40;38.90;;;;;;6139731;27;19931;-47
2022/04/20 10:12:30;;;;;;;;;;;23.40;38.80;;;;;;6140886;27;19938;-56
2022/04/20 10:18:50;;;;;;;;;;;23.40;38.80;;;;;;6159777;27;19931;-49
2022/04/20 10:21:53;;;;;;;;;;;23.40;38.80;;;;;;6141728;27;19963;-47
2022/04/20 10:24:56;;;;;;;;;;;23.40;38.80;;;;;;6138553;27;19938;-48
2022/04/20 10:28:06;;;;;;;;;;;23.50;38.90;;;;;;6174969;27;20069;-50
2022/04/20 10:31:15;;;;;;;;;;;23.30;38.90;;;;;;6181872;27;20049;-49
2022/04/20 10:34:19;;;;;;;;;;;23.30;39.00;;;;;;6218117;27;19931;-50
2022/04/20 10:37:31;;;;;;;;;;;23.20;39.00;;;;;;6219116;27;20019;-49
2022/04/20 10:40:54;;;;;;;;;;;23.30;39.10;;;;;;6165923;27;22052;-47
2022/04/20 10:44:03;;;;;;;;;;;23.30;39.10;;;;;;6206513;27;19984;-48
2022/04/20 10:47:06;;;;;;;;;;;23.80;39.30;;;;;;6206035;27;19938;-50
2022/04/20 10:50:12;;;;;;;;;;;23.20;39.00;;;;;;6213392;27;19939;-51
2022/04/20 10:53:22;;;;;;;;;;;23.30;39.00;;;;;;6214030;27;20053;-48
2022/04/20 10:56:25;;;;;;;;;;;23.20;38.90;;;;;;6228078;27;19943;-49
2022/04/20 10:59:27;;;;;;;;;;;23.30;39.00;;;;;;6220583;27;20690;-50
2022/04/20 11:02:28;;;;;;;;;;;23.30;38.90;;;;;;6241739;27;19935;-50
2022/04/20 11:05:30;;;;;;;;;;;23.40;39.00;;;;;;6231582;27;19932;-49
2022/04/20 11:08:31;;;;;;;;;;;23.30;38.90;;;;;;6219037;27;20056;-50
2022/04/20 11:21:52;;;;;;;;;;;23.40;38.90;;;;;;6247799;27;19938;-51
2022/04/20 11:25:00;;;;;;;;;;;23.40;38.90;;;;;;6247452;27;21144;-49
2022/04/20 11:28:01;;;;;;;;;;;23.40;38.90;;;;;;6211463;27;19935;-49
2022/04/20 11:31:04;;;;;;;;;;;23.40;38.90;;;;;;6233007;27;20074;-52
2022/04/20 11:34:06;;;;;;;;;;;23.30;38.80;;;;;;6240484;27;20785;-48
2022/04/20 11:37:09;;;;;;;;;;;23.40;38.90;;;;;;6213951;27;20038;-53
2022/04/20 11:40:12;;;;;;;;;;;23.50;38.90;;;;;;6192399;27;20004;-50
2022/04/20 11:43:14;;;;;;;;;;;23.50;38.90;;;;;;6198366;27;20000;-47
2022/04/20 11:46:43;;;;;;;;;;;23.50;38.90;;;;;;6168156;27;21215;-48
2022/04/20 11:49:46;;;;;;;;;;;23.40;38.80;;;;;;6202253;27;20123;-47
2022/04/20 11:53:00;;;;;;;;;;;23.40;38.80;;;;;;6205955;27;20340;-48
2022/04/20 11:56:32;;;;;;;;;;;23.60;38.90;;;;;;6213055;27;19931;-48
2022/04/20 11:59:33;;;;;;;;;;;23.40;38.80;;;;;;6176737;27;19931;-49
2022/04/20 12:02:35;;;;;;;;;;;23.60;38.90;;;;;;6167599;27;19958;-50
2022/04/20 12:05:43;;;;;;;;;;;23.60;38.90;;;;;;6165386;27;20066;-47
2022/04/20 12:08:45;;;;;;;;;;;23.50;38.80;;;;;;6128654;27;19939;-48
2022/04/20 12:11:47;;;;;;;;;;;23.50;39.10;;;;;;6146130;27;19987;-49
2022/04/20 12:14:49;;;;;;;;;;;23.50;38.70;;;;;;6133019;27;20128;-48
2022/04/20 12:17:50;;;;;;;;;;;23.60;38.70;;;;;;6117973;27;19947;-50
2022/04/20 12:20:52;;;;;;;;;;;23.70;38.90;;;;;;6116330;27;23836;-53
2022/04/20 12:23:53;;;;;;;;;;;23.70;38.70;;;;;;6154554;27;20155;-53
2022/04/20 12:26:56;;;;;;;;;;;23.70;38.70;;;;;;6144827;27;19935;-48
2022/04/20 12:29:57;;;;;;;;;;;23.70;38.70;;;;;;6088991;27;22773;-52
2022/04/20 12:33:04;;;;;;;;;;;23.70;38.60;;;;;;6120126;27;19932;-49
2022/04/20 12:36:08;;;;;;;;;;;23.70;38.60;;;;;;6149218;27;19935;-51
2022/04/20 12:39:23;;;;;;;;;;;23.80;38.70;;;;;;6125655;27;19938;-51
2022/04/20 12:42:25;;;;;;;;;;;23.80;38.60;;;;;;6129036;27;20117;-51
2022/04/20 12:45:34;;;;;;;;;;;23.90;38.60;;;;;;6143543;27;19939;-48
2022/04/20 12:48:41;;;;;;;;;;;23.90;38.60;;;;;;6138578;27;19938;-49
2022/04/20 12:51:43;;;;;;;;;;;24.00;38.60;;;;;;6125722;27;20066;-49
2022/04/20 12:54:52;;;;;;;;;;;24.00;38.50;;;;;;6137848;27;19940;-52
2022/04/20 13:04:46;;;;;;;;;;;24.10;38.50;;;;;;6141465;27;20474;-51
2022/04/20 13:07:48;;;;;;;;;;;24.10;38.50;;;;;;6153921;27;19935;-49
2022/04/20 13:10:49;;;;;;;;;;;24.20;38.50;;;;;;6151592;27;19932;-48
2022/04/20 13:13:50;;;;;;;;;;;24.20;38.60;;;;;;6129663;27;20071;-52
2022/04/20 13:16:52;;;;;;;;;;;24.20;38.60;;;;;;6163884;27;19936;-57
2022/04/20 13:19:54;;;;;;;;;;;24.20;38.60;;;;;;6142025;27;19974;-58
2022/04/20 13:22:56;;;;;;;;;;;24.20;38.60;;;;;;6151835;27;19932;-54
2022/04/20 13:29:14;;;;;;;;;;;24.20;38.70;;;;;;6125037;27;20949;-56
2022/04/20 13:32:15;;;;;;;;;;;24.20;38.60;;;;;;6107719;27;19941;-55
2022/04/20 13:35:17;;;;;;;;;;;24.20;38.70;;;;;;6098897;27;19938;-54
2022/04/20 13:38:19;;;;;;;;;;;24.20;38.60;;;;;;6113645;27;19971;-52
2022/04/20 13:41:21;;;;;;;;;;;24.20;38.70;;;;;;6117265;27;19935;-52
2022/04/20 13:44:22;;;;;;;;;;;24.20;38.70;;;;;;6154626;27;19932;-52
2022/04/20 13:47:24;;;;;;;;;;;24.20;38.70;;;;;;6144945;27;19931;-53
2022/04/20 13:50:25;;;;;;;;;;;24.20;38.70;;;;;;6163138;27;21325;-52
2022/04/20 13:53:27;;;;;;;;;;;24.20;38.70;;;;;;6133877;27;19931;-48
2022/04/20 13:56:28;;;;;;;;;;;24.20;38.70;;;;;;6154725;27;22226;-53
2022/04/20 13:59:30;;;;;;;;;;;24.20;38.70;;;;;;6144824;27;20055;-54
2022/04/20 14:02:32;;;;;;;;;;;24.30;38.70;;;;;;6146295;27;19938;-52
2022/04/20 14:05:33;;;;;;;;;;;24.20;38.70;;;;;;6113048;27;19935;-47
2022/04/20 14:08:35;;;;;;;;;;;24.10;38.70;;;;;;6128522;27;20057;-48
2022/04/20 14:11:37;;;;;;;;;;;24.20;38.80;;;;;;6095638;27;19935;-51
2022/04/20 14:14:38;;;;;;;;;;;24.20;39.00;;;;;;6147441;27;19931;-47
2022/04/20 14:17:43;;;;;;;;;;;24.20;38.80;;;;;;6133905;27;19971;-48
2022/04/20 14:20:45;;;;;;;;;;;24.00;38.80;;;;;;6169174;27;20042;-49
2022/04/20 14:23:47;;;;;;;;;;;24.10;38.80;;;;;;6177153;27;19931;-49
2022/04/20 14:33:19;;;;;;;;;;;24.10;38.90;;;;;;6164727;27;20004;-49
2022/04/20 14:36:21;;;;;;;;;;;24.10;38.90;;;;;;6118899;27;19971;-47
2022/04/20 14:39:23;;;;;;;;;;;24.10;38.90;;;;;;6144995;27;19931;-50
2022/04/20 14:42:25;;;;;;;;;;;24.10;38.90;;;;;;6128939;27;20928;-46
2022/04/20 14:45:27;;;;;;;;;;;24.00;38.80;;;;;;6155027;27;19931;-51
2022/04/20 14:48:28;;;;;;;;;;;24.10;38.90;;;;;;6167903;27;21607;-51
2022/04/20 14:51:30;;;;;;;;;;;24.10;38.90;;;;;;6133818;27;20001;-49
2022/04/20 14:54:33;;;;;;;;;;;24.10;38.90;;;;;;6185503;27;19935;-50
2022/04/20 14:57:34;;;;;;;;;;;24.10;39.00;;;;;;6128561;27;19935;-48
2022/04/20 15:00:38;;;;;;;;;;;24.10;38.90;;;;;;6147226;27;19939;-48
2022/04/20 15:03:40;;;;;;;;;;;24.10;39.30;;;;;;6123217;27;19939;-48
2022/04/20 15:06:41;;;;;;;;;;;24.10;38.90;;;;;;6146065;27;19931;-48
2022/04/20 15:09:44;;;;;;;;;;;24.20;39.00;;;;;;6135152;27;21175;-50
2022/04/20 15:12:49;;;;;;;;;;;24.10;39.00;;;;;;6138286;27;20149;-47
2022/04/20 15:15:51;;;;;;;;;;;24.00;39.00;;;;;;6145399;27;19939;-51
2022/04/20 15:18:53;;;;;;;;;;;24.00;39.00;;;;;;6133739;27;19938;-51
2022/04/20 15:21:54;;;;;;;;;;;24.00;39.00;;;;;;6145009;27;19932;-50
2022/04/20 15:24:56;;;;;;;;;;;24.10;39.00;;;;;;6138238;27;19931;-49
2022/04/20 15:27:59;;;;;;;;;;;24.10;39.00;;;;;;6151946;27;20029;-52
2022/04/20 15:31:00;;;;;;;;;;;24.10;39.00;;;;;;6150261;27;20665;-50
2022/04/20 15:34:02;;;;;;;;;;;24.10;38.90;;;;;;6115167;27;22562;-49
2022/04/20 15:37:05;;;;;;;;;;;24.10;38.90;;;;;;6144305;27;19931;-52
2022/04/20 15:40:07;;;;;;;;;;;24.10;38.90;;;;;;6155612;27;19936;-55
2022/04/20 15:43:10;;;;;;;;;;;24.10;38.90;;;;;;6173230;27;19931;-49
2022/04/20 15:46:11;;;;;;;;;;;24.00;38.80;;;;;;6195047;27;20048;-48
2022/04/20 15:49:12;;;;;;;;;;;24.20;38.90;;;;;;6197560;27;22062;-47
2022/04/20 15:52:14;;;;;;;;;;;24.10;38.80;;;;;;6192942;27;19931;-46
2022/04/20 16:01:58;;;;;;;;;;;24.20;38.90;;;;;;6188045;27;19938;-46
2022/04/20 16:05:00;;;;;;;;;;;24.20;39.00;;;;;;6202661;27;19931;-48
2022/04/20 16:08:01;;;;;;;;;;;24.10;38.90;;;;;;6185692;27;19997;-46
2022/04/20 16:11:03;;;;;;;;;;;24.20;39.00;;;;;;6205474;27;19932;-47
2022/04/20 16:14:04;;;;;;;;;;;24.20;39.10;;;;;;6221273;27;21261;-48
2022/04/20 16:17:06;;;;;;;;;;;24.10;39.00;;;;;;6223535;27;19931;-48
2022/04/20 16:20:08;;;;;;;;;;;24.20;39.10;;;;;;6207724;27;19931;-46
2022/04/20 16:23:10;;;;;;;;;;;24.20;39.70;;;;;;6230232;27;19931;-46
2022/04/20 16:26:12;;;;;;;;;;;24.10;39.10;;;;;;6229272;27;19928;-49
2022/04/20 16:29:14;;;;;;;;;;;24.00;39.00;;;;;;6244094;27;19978;-46
2022/04/20 16:32:16;;;;;;;;;;;24.20;39.10;;;;;;6237393;27;20135;-47
2022/04/20 16:35:17;;;;;;;;;;;24.20;39.10;;;;;;6237643;27;21108;-48
2022/04/20 16:38:19;;;;;;;;;;;24.20;39.10;;;;;;6258408;27;20287;-47
2022/04/20 16:41:21;;;;;;;;;;;24.20;39.10;;;;;;6234360;27;20049;-45
2022/04/20 16:44:30;;;;;;;;;;;24.10;39.10;;;;;;6249016;27;20050;-45
2022/04/20 16:47:31;;;;;;;;;;;24.10;39.10;;;;;;6246118;27;19931;-46
2022/04/20 16:50:34;;;;;;;;;;;24.20;39.10;;;;;;6260985;27;19931;-48
2022/04/20 16:53:36;;;;;;;;;;;24.10;39.10;;;;;;6273107;27;20527;-46
2022/04/20 16:56:38;;;;;;;;;;;24.10;39.20;;;;;;6255518;27;21237;-49
2022/04/20 16:59:40;;;;;;;;;;;24.10;39.20;;;;;;6271607;27;19980;-50
2022/04/20 17:02:42;;;;;;;;;;;24.10;39.20;;;;;;6271200;27;20055;-49
2022/04/20 17:05:43;;;;;;;;;;;24.10;39.20;;;;;;6268186;27;20028;-48
2022/04/20 17:08:45;;;;;;;;;;;24.10;39.20;;;;;;6270109;27;19932;-50
2022/04/20 17:11:47;;;;;;;;;;;24.00;39.10;;;;;;6271936;27;19963;-49
2022/04/20 17:14:48;;;;;;;;;;;24.10;39.20;;;;;;6268207;27;19935;-46
2022/04/20 17:17:49;;;;;;;;;;;24.00;39.20;;;;;;6273760;27;20888;-45
2022/04/20 17:27:19;;;;;;;;;;;24.10;39.30;;;;;;6271543;27;19963;-49
2022/04/20 17:30:21;;;;;;;;;;;24.10;39.20;;;;;;6271570;27;19995;-46
2022/04/20 17:33:22;;;;;;;;;;;24.10;39.30;;;;;;6275791;27;20054;-47
2022/04/20 17:39:40;;;;;;;;;;;24.10;39.30;;;;;;6271971;27;20046;-50
2022/04/20 17:42:42;;;;;;;;;;;24.00;39.30;;;;;;6272241;27;19931;-46
2022/04/20 17:45:45;;;;;;;;;;;24.10;39.40;;;;;;6280212;27;20123;-46
2022/04/20 17:48:47;;;;;;;;;;;24.00;39.40;;;;;;6261762;27;19982;-47
2022/04/20 17:51:49;;;;;;;;;;;24.00;39.40;;;;;;6273703;27;21036;-47
2022/04/20 17:54:51;;;;;;;;;;;24.00;39.40;;;;;;6276856;27;19923;-49
2022/04/20 17:57:52;;;;;;;;;;;23.90;39.40;;;;;;6276137;27;20114;-47
2022/04/20 18:00:55;;;;;;;;;;;24.00;39.60;;;;;;6278116;27;20046;-49
2022/04/20 18:03:57;;;;;;;;;;;24.00;39.50;;;;;;6233638;27;20939;-46
2022/04/20 18:06:58;;;;;;;;;;;24.00;39.50;;;;;;6270773;27;20045;-46
2022/04/20 18:10:01;;;;;;;;;;;24.00;40.10;;;;;;6273955;27;20700;-46
2022/04/20 18:13:03;;;;;;;;;;;23.70;39.40;;;;;;6277897;27;20051;-48
2022/04/20 18:16:05;;;;;;;;;;;23.90;39.50;;;;;;6276197;27;19931;-52
2022/04/20 18:19:06;;;;;;;;;;;23.80;39.40;;;;;;6278854;27;20953;-48
2022/04/20 18:22:08;;;;;;;;;;;23.90;39.50;;;;;;6280784;27;19938;-46
2022/04/20 18:25:09;;;;;;;;;;;23.90;39.50;;;;;;6276869;27;19931;-47
2022/04/20 18:28:12;;;;;;;;;;;23.90;39.60;;;;;;6269781;27;19931;-51
2022/04/20 18:31:13;;;;;;;;;;;23.90;39.60;;;;;;6260522;27;19932;-48
2022/04/20 18:34:15;;;;;;;;;;;23.90;39.60;;;;;;6279272;27;19937;-48
2022/04/20 18:37:16;;;;;;;;;;;23.90;39.60;;;;;;6279720;27;21110;-46
2022/04/20 18:40:18;;;;;;;;;;;24.00;39.60;;;;;;6279155;27;20804;-49
2022/04/20 18:43:20;;;;;;;;;;;23.70;39.50;;;;;;6284107;27;20054;-48
2022/04/20 18:46:21;;;;;;;;;;;23.90;39.60;;;;;;6290026;27;19966;-44
2022/04/20 18:49:22;;;;;;;;;;;23.80;39.60;;;;;;6276218;27;20722;-45
2022/04/20 18:52:24;;;;;;;;;;;23.70;39.60;;;;;;6285544;27;20054;-45
2022/04/20 18:58:42;;;;;;;;;;;23.80;39.60;;;;;;6279709;27;20050;-50
2022/04/20 19:01:44;;;;;;;;;;;23.90;39.70;;;;;;6273635;27;21199;-47
2022/04/20 19:04:49;;;;;;;;;;;23.70;39.70;;;;;;6281591;27;20054;-46
2022/04/20 19:07:50;;;;;;;;;;;23.70;39.70;;;;;;6281489;28;19927;-45
2022/04/20 19:10:52;;;;;;;;;;;23.80;39.80;;;;;;6281500;27;19938;-46
2022/04/20 19:13:54;;;;;;;;;;;23.70;39.80;;;;;;6283181;27;19928;-48
2022/04/20 19:16:57;;;;;;;;;;;23.70;39.80;;;;;;6286399;27;19959;-46
2022/04/20 19:20:00;;;;;;;;;;;23.70;39.80;;;;;;6286771;27;19927;-47